Time;durP1;ratioP1;P1;durP2;ratioP2;P2;SDS_P1;SDS_P2;PMS_P1;PMS_P2;Temp;Humidity;BMP_temperature;BMP_pressure;BME280_temperature;BME280_humidity;BME280_pressure;Samples;Min_cycle;Max_cycle;Signal;HPM_P1;HPM_P2
2023/07/15 00:01:06;;;;;;;6.35;3.50;;;;;;;-143.49;100.00;65027.28;5095775;28;20493;-73
2023/07/15 00:03:32;;;;;;;10.65;3.47;;;;;;;-143.49;100.00;65027.28;5095711;28;20027;-74
2023/07/15 00:05:57;;;;;;;10.18;3.30;;;;;;;-143.49;100.00;65027.28;5095643;28;20031;-73
2023/07/15 00:08:23;;;;;;;5.75;3.00;;;;;;;-143.49;100.00;65027.28;5077309;28;20044;-74
2023/07/15 00:10:48;;;;;;;7.68;3.40;;;;;;;-143.49;100.00;65027.28;5077471;28;20119;-73
2023/07/15 00:13:15;;;;;;;9.23;3.35;;;;;;;-143.49;100.00;65027.28;5095363;28;20413;-73
2023/07/15 00:15:42;;;;;;;6.90;3.13;;;;;;;-143.49;100.00;65027.28;5095741;28;20081;-74
2023/07/15 00:18:09;;;;;;;7.45;3.13;;;;;;;-143.49;100.00;65027.28;5095486;28;20125;-73
2023/07/15 00:20:35;;;;;;;8.00;2.70;;;;;;;-143.49;100.00;65027.28;5077152;28;20019;-73
2023/07/15 00:23:01;;;;;;;10.63;3.20;;;;;;;-143.49;100.00;65027.28;5095341;28;20040;-74
2023/07/15 00:25:26;;;;;;;8.23;3.03;;;;;;;-143.49;100.00;65027.28;5095386;28;20048;-73
2023/07/15 00:27:51;;;;;;;8.00;2.95;;;;;;;-143.49;100.00;65027.28;5095266;28;20100;-73
2023/07/15 00:30:20;;;;;;;9.52;3.40;;;;;;;-143.49;100.00;65027.28;5095402;28;20387;-73
2023/07/15 00:32:47;;;;;;;7.55;2.85;;;;;;;-143.49;100.00;65027.28;5077001;28;20028;-74
2023/07/15 00:35:20;;;;;;;9.23;2.90;;;;;;;-143.49;100.00;65027.28;5095299;28;20031;-74
2023/07/15 00:37:46;;;;;;;5.88;2.75;;;;;;;-143.49;100.00;65027.28;5095081;28;20032;-73
2023/07/15 00:40:11;;;;;;;6.30;3.00;;;;;;;-143.49;100.00;65027.28;5095061;28;20032;-74
2023/07/15 00:42:50;;;;;;;9.50;2.97;;;;;;;-143.49;100.00;65027.28;5094897;28;20046;-73
2023/07/15 00:45:15;;;;;;;6.00;2.78;;;;;;;-143.49;100.00;65027.28;5094911;28;20030;-73
2023/07/15 00:47:54;;;;;;;6.60;2.87;;;;;;;-143.49;100.00;65027.28;5076880;28;20463;-74
2023/07/15 00:50:20;;;;;;;8.70;2.90;;;;;;;-143.49;100.00;65027.28;5095078;28;20035;-74
2023/07/15 00:52:45;;;;;;;9.65;3.17;;;;;;;-143.49;100.00;65027.28;5094815;28;20012;-74
2023/07/15 00:55:11;;;;;;;7.97;3.05;;;;;;;-143.49;100.00;65027.28;5094876;28;20035;-73
2023/07/15 00:57:36;;;;;;;6.65;2.70;;;;;;;-143.49;100.00;65027.28;5076550;28;20038;-73
2023/07/15 01:00:04;;;;;;;5.15;2.80;;;;;;;-143.49;100.00;65027.28;5094689;28;20031;-74
2023/07/15 01:02:30;;;;;;;5.82;2.80;;;;;;;-143.49;100.00;65027.28;5094657;28;20088;-73
2023/07/15 01:04:55;;;;;;;6.07;2.92;;;;;;;-143.49;100.00;65027.28;5094562;28;20107;-73
2023/07/15 01:07:21;;;;;;;4.93;2.58;;;;;;;-143.49;100.00;65027.28;5094330;28;20044;-74
2023/07/15 01:09:47;;;;;;;7.05;2.55;;;;;;;-143.49;100.00;65027.28;5076271;28;20036;-74
2023/07/15 01:12:12;;;;;;;6.28;2.80;;;;;;;-143.49;100.00;65027.28;5094366;28;20024;-73
2023/07/15 01:14:38;;;;;;;8.40;2.60;;;;;;;-143.49;100.00;65027.28;5076170;28;20020;-73
2023/07/15 01:17:05;;;;;;;7.57;2.85;;;;;;;-143.49;100.00;65027.28;5076139;28;20085;-73
2023/07/15 01:19:30;;;;;;;5.90;2.60;;;;;;;-143.49;100.00;65027.28;5094244;28;20034;-74
2023/07/15 01:21:56;;;;;;;6.78;2.70;;;;;;;-143.49;100.00;65027.28;5094214;28;20020;-73
2023/07/15 01:24:22;;;;;;;9.57;2.50;;;;;;;-143.49;100.00;65027.28;5094121;28;20417;-73
2023/07/15 01:26:55;;;;;;;5.90;2.65;;;;;;;-143.49;100.00;65027.28;5075997;28;20024;-73
2023/07/15 01:29:20;;;;;;;7.57;2.60;;;;;;;-143.49;100.00;65027.28;5076056;28;20372;-73
2023/07/15 01:31:45;;;;;;;9.32;2.88;;;;;;;-143.49;100.00;65027.28;5093915;28;20111;-74
2023/07/15 01:34:12;;;;;;;7.00;2.80;;;;;;;-143.49;100.00;65027.28;5093993;28;20032;-74
2023/07/15 01:36:37;;;;;;;5.85;2.60;;;;;;;-143.49;100.00;65027.28;5075970;28;20024;-74
2023/07/15 01:39:06;;;;;;;7.03;2.70;;;;;;;-143.49;100.00;65027.28;5075753;28;20031;-74
2023/07/15 01:41:31;;;;;;;10.10;2.70;;;;;;;-143.49;100.00;65027.28;5093857;28;20097;-73
2023/07/15 01:43:57;;;;;;;7.05;2.50;;;;;;;-143.49;100.00;65027.28;5093495;28;20491;-74
2023/07/15 01:46:22;;;;;;;9.40;2.72;;;;;;;-143.49;100.00;65027.28;5093812;28;20051;-73
2023/07/15 01:48:48;;;;;;;5.55;2.65;;;;;;;-143.49;100.00;65027.28;5075993;28;20050;-74
2023/07/15 01:51:13;;;;;;;6.07;2.58;;;;;;;-143.49;100.00;65027.28;5093618;28;20470;-74
2023/07/15 01:53:38;;;;;;;6.32;2.50;;;;;;;-143.49;100.00;65027.28;5075623;28;20020;-73
2023/07/15 01:56:04;;;;;;;7.93;2.63;;;;;;;-143.49;100.00;65027.28;5075491;28;20048;-74
2023/07/15 01:58:29;;;;;;;9.85;2.72;;;;;;;-143.49;100.00;65027.28;5093677;28;20078;-73
2023/07/15 02:00:54;;;;;;;6.63;2.65;;;;;;;-143.49;100.00;65027.28;5093504;28;20028;-74
2023/07/15 02:03:20;;;;;;;9.90;2.75;;;;;;;-143.49;100.00;65027.28;5093596;28;20443;-74
2023/07/15 02:05:45;;;;;;;6.60;2.78;;;;;;;-143.49;100.00;65027.28;5075361;28;20019;-74
2023/07/15 02:08:11;;;;;;;10.77;2.65;;;;;;;-143.49;100.00;65027.28;5093290;28;20075;-73
2023/07/15 02:10:37;;;;;;;4.93;2.70;;;;;;;-143.49;100.00;65027.28;5075249;28;20020;-72
2023/07/15 02:13:02;;;;;;;6.55;2.60;;;;;;;-143.49;100.00;65027.28;5075144;28;20039;-73
2023/07/15 02:15:27;;;;;;;8.40;3.03;;;;;;;-143.49;100.00;65027.28;5093483;28;20020;-73
2023/07/15 02:17:53;;;;;;;8.10;2.83;;;;;;;-143.49;100.00;65027.28;5093387;28;20494;-73
2023/07/15 02:20:19;;;;;;;6.93;2.95;;;;;;;-143.49;100.00;65027.28;5093383;28;20109;-73
2023/07/15 02:22:44;;;;;;;9.18;3.00;;;;;;;-143.49;100.00;65027.28;5093319;28;20016;-74
2023/07/15 02:25:09;;;;;;;4.88;2.80;;;;;;;-143.49;100.00;65027.28;5093340;28;20035;-74
2023/07/15 02:27:35;;;;;;;7.90;2.90;;;;;;;-143.49;100.00;65027.28;5093307;28;20158;-73
2023/07/15 02:30:00;;;;;;;5.97;2.70;;;;;;;-143.49;100.00;65027.28;5093297;28;20032;-74
2023/07/15 02:32:39;;;;;;;8.00;3.13;;;;;;;-143.49;100.00;65027.28;5093115;28;20028;-74
2023/07/15 02:35:10;;;;;;;12.80;3.17;;;;;;;-143.49;100.00;65027.28;5093140;28;20035;-74
2023/07/15 02:37:37;;;;;;;5.88;2.88;;;;;;;-143.49;100.00;65027.28;5093162;28;20539;-74
2023/07/15 02:40:04;;;;;;;5.45;2.83;;;;;;;-143.49;100.00;65027.28;5093084;28;20047;-74
2023/07/15 02:42:33;;;;;;;8.13;3.13;;;;;;;-143.49;100.00;65027.28;5075258;28;20027;-74
2023/07/15 02:44:58;;;;;;;7.60;3.15;;;;;;;-143.49;100.00;65027.28;5093149;28;20028;-74
2023/07/15 02:47:24;;;;;;;7.68;3.50;;;;;;;-143.49;100.00;65027.28;5093014;28;20032;-74
2023/07/15 02:49:49;;;;;;;7.70;3.10;;;;;;;-143.49;100.00;65027.28;5093167;28;20027;-74
2023/07/15 02:52:14;;;;;;;7.63;3.03;;;;;;;-143.49;100.00;65027.28;5075031;28;20024;-73
2023/07/15 02:54:40;;;;;;;7.75;3.22;;;;;;;-143.49;100.00;65027.28;5093112;28;20024;-74
2023/07/15 02:57:05;;;;;;;7.10;3.10;;;;;;;-143.49;100.00;65027.28;5077534;28;20020;-73
2023/07/15 02:59:33;;;;;;;7.75;2.88;;;;;;;-143.49;100.00;65027.28;5097781;28;20039;-74
2023/07/15 03:01:58;;;;;;;6.03;2.92;;;;;;;-143.49;100.00;65027.28;5078913;28;20024;-74
2023/07/15 03:04:24;;;;;;;11.80;3.17;;;;;;;-143.49;100.00;65027.28;5097119;28;20035;-72
2023/07/15 03:06:49;;;;;;;9.73;2.92;;;;;;;-143.49;100.00;65027.28;5078588;28;20024;-72
2023/07/15 03:09:14;;;;;;;8.13;3.03;;;;;;;-143.49;100.00;65027.28;5097303;28;20028;-73
2023/07/15 03:11:40;;;;;;;8.75;3.05;;;;;;;-143.49;100.00;65027.28;5078694;28;20026;-74
2023/07/15 03:14:05;;;;;;;5.32;3.00;;;;;;;-143.49;100.00;65027.28;5097091;28;20398;-73
2023/07/15 03:16:30;;;;;;;9.45;3.40;;;;;;;-143.49;100.00;65027.28;5078574;28;20560;-73
2023/07/15 03:18:56;;;;;;;5.78;2.97;;;;;;;-143.49;100.00;65027.28;5096594;28;20034;-74
2023/07/15 03:21:21;;;;;;;10.48;3.15;;;;;;;-143.49;100.00;65027.28;5096657;28;20024;-75
2023/07/15 03:23:46;;;;;;;9.88;3.13;;;;;;;-143.49;100.00;65027.28;5096524;28;20028;-73
2023/07/15 03:26:12;;;;;;;7.28;3.17;;;;;;;-143.49;100.00;65027.28;5096570;28;20107;-73
2023/07/15 03:28:37;;;;;;;7.05;2.97;;;;;;;-143.49;100.00;65027.28;5078259;28;20016;-73
2023/07/15 03:31:04;;;;;;;7.53;2.85;;;;;;;-143.49;100.00;65027.28;5096360;28;20024;-73
2023/07/15 03:33:29;;;;;;;6.57;2.72;;;;;;;-143.49;100.00;65027.28;5078263;28;20016;-73
2023/07/15 03:35:55;;;;;;;6.68;2.78;;;;;;;-143.49;100.00;65027.28;5096335;28;20035;-73
2023/07/15 03:38:20;;;;;;;13.10;2.90;;;;;;;-143.49;100.00;65027.28;5078078;28;20035;-73
2023/07/15 03:40:49;;;;;;;6.70;3.00;;;;;;;-143.49;100.00;65027.28;5077973;28;20043;-73
2023/07/15 03:43:15;;;;;;;9.77;2.80;;;;;;;-143.49;100.00;65027.28;5096077;28;20069;-74
2023/07/15 03:45:40;;;;;;;6.32;2.90;;;;;;;-143.49;100.00;65027.28;5096190;28;20111;-73
2023/07/15 03:48:05;;;;;;;16.25;3.25;;;;;;;-143.49;100.00;65027.28;5096045;28;20020;-74
2023/07/15 03:50:30;;;;;;;5.80;2.80;;;;;;;-143.49;100.00;65027.28;5077856;28;20038;-74
2023/07/15 03:52:56;;;;;;;10.00;3.22;;;;;;;-143.49;100.00;65027.28;5095863;28;20124;-74
2023/07/15 03:55:21;;;;;;;8.85;2.95;;;;;;;-143.49;100.00;65027.28;5077713;28;20036;-74
2023/07/15 03:57:46;;;;;;;10.95;3.17;;;;;;;-143.49;100.00;65027.28;5096027;28;20372;-74
2023/07/15 04:00:17;;;;;;;5.13;2.60;;;;;;;-143.49;100.00;65027.28;5095942;28;20055;-74
2023/07/15 04:02:44;;;;;;;8.13;2.78;;;;;;;-143.49;100.00;65027.28;5095844;28;20077;-74
2023/07/15 04:05:11;;;;;;;11.43;3.00;;;;;;;-143.49;100.00;65027.28;5095720;28;20046;-74
2023/07/15 04:07:36;;;;;;;5.85;2.90;;;;;;;-143.49;100.00;65027.28;5088653;28;20044;-74
2023/07/15 04:10:02;;;;;;;8.45;3.08;;;;;;;-143.49;100.00;65027.28;5075441;28;20098;-74
2023/07/15 04:12:27;;;;;;;9.15;2.80;;;;;;;-143.49;100.00;65027.28;5057349;28;20028;-74
2023/07/15 04:14:52;;;;;;;8.63;3.10;;;;;;;-143.49;100.00;65027.28;5075383;28;20115;-74
2023/07/15 04:17:18;;;;;;;8.23;2.90;;;;;;;-143.49;100.00;65027.28;5075336;28;20020;-74
2023/07/15 04:19:43;;;;;;;7.25;2.90;;;;;;;-143.49;100.00;65027.28;5075258;28;20032;-73
2023/07/15 04:22:08;;;;;;;5.93;2.90;;;;;;;-143.49;100.00;65027.28;5057252;28;20048;-74
2023/07/15 04:24:34;;;;;;;7.38;2.90;;;;;;;-143.49;100.00;65027.28;5075148;28;20027;-74
2023/07/15 04:27:02;;;;;;;7.70;2.92;;;;;;;-143.49;100.00;65027.28;5075307;28;20021;-74
2023/07/15 04:29:30;;;;;;;8.02;2.90;;;;;;;-143.49;100.00;65027.28;5057107;28;20392;-74
2023/07/15 04:31:55;;;;;;;7.50;3.03;;;;;;;-143.49;100.00;65027.28;5074907;28;20020;-72
2023/07/15 04:34:21;;;;;;;9.00;3.10;;;;;;;-143.49;100.00;65027.28;5074959;28;20028;-73
2023/07/15 04:36:46;;;;;;;8.98;2.60;;;;;;;-143.49;100.00;65027.28;5075210;28;20031;-73
2023/07/15 04:39:11;;;;;;;9.90;2.78;;;;;;;-143.49;100.00;65027.28;5074974;28;20158;-73
2023/07/15 04:41:37;;;;;;;10.40;2.80;;;;;;;-143.49;100.00;65027.28;5074852;28;20020;-73
2023/07/15 04:44:02;;;;;;;4.38;2.60;;;;;;;-143.49;100.00;65027.28;5056755;28;20032;-73
2023/07/15 04:46:28;;;;;;;8.68;2.53;;;;;;;-143.49;100.00;65027.28;5074687;28;20031;-73
2023/07/15 04:48:53;;;;;;;5.93;2.92;;;;;;;-143.49;100.00;65027.28;5074703;28;20021;-74
2023/07/15 04:51:19;;;;;;;9.20;2.58;;;;;;;-143.49;100.00;65027.28;5056572;28;20024;-74
2023/07/15 04:53:46;;;;;;;9.98;2.75;;;;;;;-143.49;100.00;65027.28;5056637;28;20035;-74
2023/07/15 04:56:11;;;;;;;6.65;2.70;;;;;;;-143.49;100.00;65027.28;5056696;28;20027;-74
2023/07/15 04:58:38;;;;;;;4.63;2.40;;;;;;;-143.49;100.00;65027.28;5056702;28;20060;-74
2023/07/15 05:01:03;;;;;;;7.05;2.30;;;;;;;-143.49;100.00;65027.28;5074401;28;20028;-74
2023/07/15 05:03:29;;;;;;;6.47;2.60;;;;;;;-143.49;100.00;65027.28;5056544;28;20446;-74
2023/07/15 05:05:55;;;;;;;5.38;2.10;;;;;;;-143.49;100.00;65027.28;5074338;28;20107;-74
2023/07/15 05:08:23;;;;;;;5.80;2.40;;;;;;;-143.49;100.00;65027.28;5074123;28;20087;-74
2023/07/15 05:10:48;;;;;;;4.65;2.10;;;;;;;-143.49;100.00;65027.28;5074316;28;20048;-74
2023/07/15 05:13:15;;;;;;;7.55;2.40;;;;;;;-143.49;100.00;65027.28;5074145;28;20511;-74
2023/07/15 05:15:41;;;;;;;4.53;2.00;;;;;;;-143.49;100.00;65027.28;5074193;28;20027;-74
2023/07/15 05:18:08;;;;;;;4.85;2.03;;;;;;;-143.49;100.00;65027.28;5073987;28;20029;-74
2023/07/15 05:20:34;;;;;;;6.30;2.20;;;;;;;-143.49;100.00;65027.28;5073349;28;20047;-74
2023/07/15 05:23:04;;;;;;;9.38;2.20;;;;;;;-143.49;100.00;65027.28;5073962;28;20016;-74
2023/07/15 05:25:30;;;;;;;5.18;2.10;;;;;;;-143.49;100.00;65027.28;5055847;28;20538;-74
2023/07/15 05:27:57;;;;;;;6.50;2.30;;;;;;;-143.49;100.00;65027.28;5073833;28;20047;-74
2023/07/15 05:30:23;;;;;;;6.68;2.25;;;;;;;-143.49;100.00;65027.28;5073645;28;20029;-73
2023/07/15 05:32:49;;;;;;;10.00;2.50;;;;;;;-143.49;100.00;65027.28;5073720;28;20029;-73
2023/07/15 05:35:14;;;;;;;7.63;2.25;;;;;;;-143.49;100.00;65027.28;5055737;28;20020;-73
2023/07/15 05:37:40;;;;;;;3.72;2.15;;;;;;;-143.49;100.00;65027.28;5073701;28;20165;-74
2023/07/15 05:40:09;;;;;;;5.20;2.10;;;;;;;-143.49;100.00;65027.28;5073668;28;20031;-74
2023/07/15 05:42:39;;;;;;;5.07;2.35;;;;;;;-143.49;100.00;65027.28;5055745;28;20027;-73
2023/07/15 05:45:06;;;;;;;4.25;2.22;;;;;;;-143.49;100.00;65027.28;5073434;28;20023;-73
2023/07/15 05:47:31;;;;;;;6.22;2.17;;;;;;;-143.49;100.00;65027.28;5073523;28;20029;-73
2023/07/15 05:49:56;;;;;;;4.95;2.00;;;;;;;-143.49;100.00;65027.28;5073472;28;20025;-72
2023/07/15 05:52:22;;;;;;;7.05;2.38;;;;;;;-143.49;100.00;65027.28;5073282;28;20434;-73
2023/07/15 05:54:47;;;;;;;5.47;2.22;;;;;;;-143.49;100.00;65027.28;5073299;28;20051;-72
2023/07/15 05:57:12;;;;;;;4.38;2.00;;;;;;;-143.49;100.00;65027.28;5055266;28;20028;-73
2023/07/15 05:59:37;;;;;;;3.78;1.70;;;;;;;-143.49;100.00;65027.28;5073251;28;20021;-73
2023/07/15 06:02:03;;;;;;;7.45;2.08;;;;;;;-143.49;100.00;65027.28;5055186;28;20059;-73
2023/07/15 06:04:28;;;;;;;4.70;1.67;;;;;;;-143.49;100.00;65027.28;5073114;28;20082;-73
2023/07/15 06:06:54;;;;;;;3.40;1.80;;;;;;;-143.49;100.00;65027.28;5072944;28;20383;-73
2023/07/15 06:09:19;;;;;;;4.20;1.60;;;;;;;-143.49;100.00;65027.28;5055410;28;20384;-74
2023/07/15 06:11:44;;;;;;;6.13;1.90;;;;;;;-143.49;100.00;65027.28;5073058;28;20382;-74
2023/07/15 06:14:10;;;;;;;6.70;1.60;;;;;;;-143.49;100.00;65027.28;5073038;28;20028;-74
2023/07/15 06:16:35;;;;;;;3.33;1.60;;;;;;;-143.49;100.00;65027.28;5055069;28;20107;-74
2023/07/15 06:19:00;;;;;;;4.75;1.60;;;;;;;-143.49;100.00;65027.28;5072996;28;20460;-74
2023/07/15 06:21:26;;;;;;;4.03;1.58;;;;;;;-143.49;100.00;65027.28;5072980;28;20052;-74
2023/07/15 06:23:51;;;;;;;2.50;1.20;;;;;;;-143.49;100.00;65027.28;5055059;28;20410;-73
2023/07/15 06:26:16;;;;;;;3.55;1.20;;;;;;;-143.49;100.00;65027.28;5055077;28;20035;-73
2023/07/15 06:28:42;;;;;;;4.57;1.33;;;;;;;-143.49;100.00;65027.28;5072793;28;20438;-74
2023/07/15 06:31:07;;;;;;;3.80;1.50;;;;;;;-143.49;100.00;65027.28;5073313;28;20034;-73
2023/07/15 06:33:36;;;;;;;4.43;1.30;;;;;;;-143.49;100.00;65027.28;5055031;28;20046;-73
2023/07/15 06:36:03;;;;;;;3.38;1.30;;;;;;;-143.49;100.00;65027.28;5072918;28;20491;-73
2023/07/15 06:38:29;;;;;;;4.82;1.35;;;;;;;-143.49;100.00;65027.28;5054976;28;20536;-73
2023/07/15 06:40:55;;;;;;;3.78;1.25;;;;;;;-143.49;100.00;65027.28;5054871;28;20127;-74
2023/07/15 06:43:20;;;;;;;2.33;1.23;;;;;;;-143.49;100.00;65027.28;5054880;28;20476;-74
2023/07/15 06:45:46;;;;;;;2.35;1.17;;;;;;;-143.49;100.00;65027.28;5054917;28;20050;-73
2023/07/15 06:48:12;;;;;;;3.33;1.20;;;;;;;-143.49;100.00;65027.28;5072896;28;20504;-74
2023/07/15 06:50:37;;;;;;;3.88;1.40;;;;;;;-143.49;100.00;65027.28;5072915;28;20090;-73
2023/07/15 06:53:03;;;;;;;3.92;1.27;;;;;;;-143.49;100.00;65027.28;5072995;28;20025;-73
2023/07/15 06:55:28;;;;;;;2.33;1.13;;;;;;;-143.49;100.00;65027.28;5072926;28;20451;-73
2023/07/15 06:57:53;;;;;;;4.85;1.30;;;;;;;-143.49;100.00;65027.28;5072808;28;20391;-73
2023/07/15 07:00:19;;;;;;;3.90;1.42;;;;;;;-143.49;100.00;65027.28;5072686;28;20028;-73
2023/07/15 07:02:46;;;;;;;4.18;1.50;;;;;;;-143.49;100.00;65027.28;5072662;28;20099;-74
2023/07/15 07:05:11;;;;;;;2.65;1.20;;;;;;;-143.49;100.00;65027.28;5055221;28;20031;-73
2023/07/15 07:07:36;;;;;;;4.32;1.30;;;;;;;-143.49;100.00;65027.28;5054564;28;20056;-73
2023/07/15 07:10:02;;;;;;;2.75;1.40;;;;;;;-143.49;100.00;65027.28;5072680;28;20020;-73
2023/07/15 07:12:27;;;;;;;5.40;1.60;;;;;;;-143.49;100.00;65027.28;5054557;28;20024;-73
2023/07/15 07:14:52;;;;;;;2.22;1.35;;;;;;;-143.49;100.00;65027.28;5072472;28;20468;-74
2023/07/15 07:17:18;;;;;;;4.93;1.50;;;;;;;-143.49;100.00;65027.28;5054490;28;20021;-73
2023/07/15 07:19:45;;;;;;;3.05;1.42;;;;;;;-143.49;100.00;65027.28;5072442;28;20073;-74
2023/07/15 07:22:11;;;;;;;2.00;1.10;;;;;;;-143.49;100.00;65027.28;5069991;28;20074;-74
2023/07/15 07:24:36;;;;;;;3.67;1.20;;;;;;;-143.49;100.00;65027.28;5069397;28;20020;-74
2023/07/15 07:27:02;;;;;;;4.03;1.25;;;;;;;-143.49;100.00;65027.28;5069986;28;20024;-74
2023/07/15 07:29:27;;;;;;;3.13;1.15;;;;;;;-143.49;100.00;65027.28;5068635;28;20040;-74
2023/07/15 07:31:52;;;;;;;4.00;0.95;;;;;;;-143.49;100.00;65027.28;5051567;28;20032;-74
2023/07/15 07:34:18;;;;;;;2.08;1.13;;;;;;;-143.49;100.00;65027.28;5069754;28;20021;-74
2023/07/15 07:36:45;;;;;;;2.45;1.02;;;;;;;-143.49;100.00;65027.28;5053357;28;20066;-73
2023/07/15 07:39:10;;;;;;;2.58;1.30;;;;;;;-143.49;100.00;65027.28;5072802;28;20032;-73
2023/07/15 07:41:36;;;;;;;2.47;1.38;;;;;;;-143.49;100.00;65027.28;5054956;28;20025;-74
2023/07/15 07:44:01;;;;;;;2.25;1.20;;;;;;;-143.49;100.00;65027.28;5057803;28;20115;-74
2023/07/15 07:46:26;;;;;;;5.38;1.27;;;;;;;-143.49;100.00;65027.28;5075379;28;20043;-73
2023/07/15 07:48:52;;;;;;;4.07;1.20;;;;;;;-143.49;100.00;65027.28;5075231;28;20028;-73
2023/07/15 07:51:19;;;;;;;1.65;1.00;;;;;;;-143.49;100.00;65027.28;5057271;28;20024;-73
2023/07/15 07:53:44;;;;;;;2.10;1.02;;;;;;;-143.49;100.00;65027.28;5075075;28;20506;-73
2023/07/15 07:56:11;;;;;;;3.45;1.30;;;;;;;-143.49;100.00;65027.28;5075276;28;20048;-74
2023/07/15 07:58:38;;;;;;;3.70;1.25;;;;;;;-143.49;100.00;65027.28;5075629;28;20545;-73
2023/07/15 08:01:03;;;;;;;2.15;1.00;;;;;;;-143.49;100.00;65027.28;5057962;28;20028;-74
2023/07/15 08:03:29;;;;;;;5.20;1.42;;;;;;;-143.49;100.00;65027.28;5057661;28;20518;-72
2023/07/15 08:05:54;;;;;;;4.07;1.30;;;;;;;-143.49;100.00;65027.28;5075323;28;20024;-74
2023/07/15 08:08:20;;;;;;;2.38;1.30;;;;;;;-143.49;100.00;65027.28;5073946;28;20105;-74
2023/07/15 08:10:45;;;;;;;3.75;1.23;;;;;;;-143.49;100.00;65027.28;5075200;28;20468;-73
2023/07/15 08:13:10;;;;;;;2.10;1.25;;;;;;;-143.49;100.00;65027.28;5075171;28;20050;-74
2023/07/15 08:15:37;;;;;;;3.58;1.20;;;;;;;-143.49;100.00;65027.28;5075591;28;20021;-73
2023/07/15 08:18:03;;;;;;;3.63;1.15;;;;;;;-143.49;100.00;65027.28;5074477;28;20025;-73
2023/07/15 08:20:30;;;;;;;1.67;1.02;;;;;;;-143.49;100.00;65027.28;5056475;28;20035;-73
2023/07/15 08:22:56;;;;;;;2.45;1.05;;;;;;;-143.49;100.00;65027.28;5074455;28;20043;-73
2023/07/15 08:25:22;;;;;;;2.85;1.27;;;;;;;-143.49;100.00;65027.28;5074094;28;20066;-73
2023/07/15 08:27:47;;;;;;;3.50;1.30;;;;;;;-143.49;100.00;65027.28;5055657;28;20502;-73
2023/07/15 08:30:13;;;;;;;3.50;1.20;;;;;;;-143.49;100.00;65027.28;5074112;28;20031;-75
2023/07/15 08:32:38;;;;;;;6.65;1.50;;;;;;;-143.49;100.00;65027.28;5056715;28;20411;-73
2023/07/15 08:35:05;;;;;;;2.78;1.20;;;;;;;-143.49;100.00;65027.28;5075709;28;20048;-74
2023/07/15 08:37:31;;;;;;;4.00;1.30;;;;;;;-143.49;100.00;65027.28;5076401;28;20025;-73
2023/07/15 08:39:56;;;;;;;2.75;1.42;;;;;;;-143.49;100.00;65027.28;5075326;28;20047;-74
2023/07/15 08:42:23;;;;;;;3.58;1.20;;;;;;;-143.49;100.00;65027.28;5076459;28;20444;-74
2023/07/15 08:44:52;;;;;;;2.80;1.27;;;;;;;-143.49;100.00;65027.28;5075816;28;20032;-75
2023/07/15 08:47:24;;;;;;;4.13;1.25;;;;;;;-143.49;100.00;65027.28;5056592;28;20436;-74
2023/07/15 08:49:52;;;;;;;4.40;1.60;;;;;;;-143.49;100.00;65027.28;5074642;28;20020;-74
2023/07/15 08:52:19;;;;;;;2.63;1.17;;;;;;;-143.49;100.00;65027.28;5074483;28;20086;-73
2023/07/15 08:54:46;;;;;;;1.92;1.20;;;;;;;-143.49;100.00;65027.28;5073247;28;20121;-72
2023/07/15 08:57:12;;;;;;;2.95;1.40;;;;;;;-143.49;100.00;65027.28;5056332;28;20484;-72
2023/07/15 08:59:37;;;;;;;4.60;1.30;;;;;;;-143.49;100.00;65027.28;5074313;28;20028;-73
2023/07/15 09:02:03;;;;;;;3.65;1.25;;;;;;;-143.49;100.00;65027.28;5073982;28;20068;-72
2023/07/15 09:04:29;;;;;;;2.83;1.13;;;;;;;-143.49;100.00;65027.28;5056148;28;20027;-71
2023/07/15 09:06:55;;;;;;;2.28;1.20;;;;;;;-143.49;100.00;65027.28;5074454;28;20024;-73
2023/07/15 09:09:31;;;;;;;2.83;1.05;;;;;;;-143.49;100.00;65027.28;5075882;28;20035;-73
2023/07/15 09:12:03;;;;;;;3.08;1.35;;;;;;;-143.49;100.00;65027.28;5092650;28;20024;-72
2023/07/15 09:14:28;;;;;;;4.03;1.30;;;;;;;-143.49;100.00;65027.28;5094065;28;20122;-72
2023/07/15 09:16:55;;;;;;;4.25;1.65;;;;;;;-143.49;100.00;65027.28;5095782;28;20110;-75
2023/07/15 09:19:26;;;;;;;2.38;1.27;;;;;;;-143.49;100.00;65027.28;5077165;28;20165;-75
2023/07/15 09:22:12;;;;;;;3.20;1.20;;;;;;;-143.49;100.00;65027.28;5094649;28;20042;-75
2023/07/15 09:24:38;;;;;;;3.75;1.10;;;;;;;-143.49;100.00;65027.28;5094126;28;20040;-75
2023/07/15 09:27:04;;;;;;;4.40;1.50;;;;;;;-143.49;100.00;65027.28;5094972;28;20024;-77
2023/07/15 09:29:30;;;;;;;4.07;1.33;;;;;;;-143.49;100.00;65027.28;5093413;28;20036;-75
2023/07/15 09:31:56;;;;;;;5.30;1.35;;;;;;;-143.49;100.00;65027.28;5092489;28;20545;-75
2023/07/15 09:34:24;;;;;;;4.97;1.30;;;;;;;-143.49;100.00;65027.28;5092440;28;20032;-77
2023/07/15 09:36:49;;;;;;;5.55;2.20;;;;;;;-143.49;100.00;65027.28;5074692;28;20051;-74
2023/07/15 09:39:19;;;;;;;4.68;1.80;;;;;;;-143.49;100.00;65027.28;5091778;28;20058;-76
2023/07/15 09:41:59;;;;;;;4.32;1.42;;;;;;;-143.49;100.00;65027.28;5073519;28;20044;-75
2023/07/15 09:44:37;;;;;;;4.35;1.48;;;;;;;-143.49;100.00;65027.28;5074362;28;20028;-75
2023/07/15 09:47:04;;;;;;;5.93;1.60;;;;;;;-143.49;100.00;65027.28;5093340;28;20020;-76
2023/07/15 09:49:30;;;;;;;7.25;1.40;;;;;;;-143.49;100.00;65027.28;5093350;28;20539;-75
2023/07/15 09:51:57;;;;;;;5.68;1.65;;;;;;;-143.49;100.00;65027.28;5093139;28;20024;-75
2023/07/15 09:54:25;;;;;;;3.55;1.40;;;;;;;-143.49;100.00;65027.28;5093358;28;20498;-75
2023/07/15 09:56:56;;;;;;;4.85;1.52;;;;;;;-143.49;100.00;65027.28;5093532;28;20467;-75
2023/07/15 09:59:22;;;;;;;4.88;1.50;;;;;;;-143.49;100.00;65027.28;5093434;28;20393;-75
2023/07/15 10:01:50;;;;;;;2.95;1.40;;;;;;;-143.49;100.00;65027.28;5093454;28;20024;-76
2023/07/15 10:04:32;;;;;;;3.47;1.60;;;;;;;-143.49;100.00;65027.28;5093521;28;20127;-76
2023/07/15 10:07:00;;;;;;;4.75;1.70;;;;;;;-143.49;100.00;65027.28;5093185;28;20028;-77
2023/07/15 10:09:26;;;;;;;3.05;1.40;;;;;;;-143.49;100.00;65027.28;5092871;28;20066;-75
2023/07/15 10:11:52;;;;;;;2.40;1.65;;;;;;;-143.49;100.00;65027.28;5092831;28;20794;-75
2023/07/15 10:14:19;;;;;;;3.63;1.65;;;;;;;-143.49;100.00;65027.28;5074784;28;20056;-76
2023/07/15 10:16:45;;;;;;;4.32;1.85;;;;;;;-143.49;100.00;65027.28;5074446;28;20538;-75
2023/07/15 10:19:38;;;;;;;3.65;1.55;;;;;;;-143.49;100.00;65027.28;5092661;28;20058;-75
2023/07/15 10:22:04;;;;;;;3.70;1.80;;;;;;;-143.49;100.00;65027.28;5092699;28;20055;-75
2023/07/15 10:24:29;;;;;;;4.00;1.90;;;;;;;-143.49;100.00;65027.28;5093223;28;20020;-76
2023/07/15 10:26:55;;;;;;;4.50;1.90;;;;;;;-143.49;100.00;65027.28;5093241;28;20051;-74
2023/07/15 10:29:23;;;;;;;7.30;2.20;;;;;;;-143.49;100.00;65027.28;5075015;28;20372;-75
2023/07/15 10:32:07;;;;;;;3.17;1.85;;;;;;;-143.49;100.00;65027.28;5092962;28;20495;-74
2023/07/15 10:34:38;;;;;;;3.95;2.00;;;;;;;-143.49;100.00;65027.28;5074958;28;20112;-74
2023/07/15 10:37:09;;;;;;;4.97;2.05;;;;;;;-143.49;100.00;65027.28;5093065;28;20848;-74
2023/07/15 10:39:35;;;;;;;7.45;2.00;;;;;;;-143.49;100.00;65027.28;5093149;28;20016;-74
2023/07/15 10:42:14;;;;;;;5.72;1.95;;;;;;;-143.49;100.00;65027.28;5093107;28;20050;-76
2023/07/15 10:45:00;;;;;;;5.70;2.00;;;;;;;-143.49;100.00;65027.28;5093036;28;20024;-75
2023/07/15 10:47:28;;;;;;;3.97;1.75;;;;;;;-143.49;100.00;65027.28;5074455;28;20036;-75
2023/07/15 10:49:53;;;;;;;3.45;1.77;;;;;;;-143.49;100.00;65027.28;5093026;28;20055;-74
2023/07/15 10:52:19;;;;;;;3.55;1.70;;;;;;;-143.49;100.00;65027.28;5093007;28;20028;-74
2023/07/15 10:54:45;;;;;;;4.20;1.95;;;;;;;-143.49;100.00;65027.28;5093081;28;20057;-74
2023/07/15 10:57:14;;;;;;;7.80;2.10;;;;;;;-143.49;100.00;65027.28;5093082;28;20031;-74
2023/07/15 10:59:42;;;;;;;6.30;1.90;;;;;;;-143.49;100.00;65027.28;5074882;28;20032;-73
2023/07/15 11:02:08;;;;;;;6.45;2.15;;;;;;;-143.49;100.00;65027.28;5074689;28;20020;-76
2023/07/15 11:04:38;;;;;;;10.77;2.00;;;;;;;-143.49;100.00;65027.28;5093003;28;20027;-74
2023/07/15 11:07:07;;;;;;;4.28;1.73;;;;;;;-143.49;100.00;65027.28;5074690;28;20080;-77